Clifford Maersk — OYRO2 — position and weather

sailwx.info

Track history (hours):
 
Tides and Currents Weather Stations Pressure Air Temp Water Temp Dewpoint Dewpoint Depression Visibility Wind Speed Wind Dir Waves Ship Positions

Clifford Maersk

Last reported at 2015-Apr-26 05:33 UTC. Time now 2015-May-28 14:14 UTC.
Position N 35°02' E 129°16'.
Warning: this ship's position is 32 days out of date.

Type: Ship (hazmat cat A). MMSI: 219840000.

Date/timePositionNaut miles runAvg speedWind from/ knotsBaromVisibWave heightAir tempDewpointWater temp
2015-Apr-26 05:33N 35°02' E 129°16'206 6.4
2015-Apr-24 21:11N 32°39' E 126°18'2522.2
2015-Apr-24 20:03N 32°24' E 125°54'1122.3
2015-Apr-24 19:33N 32°18' E 125°43'2322.2
2015-Apr-24 18:32N 32°04' E 125°23'2121.8
2015-Apr-24 17:33N 31°50' E 125°03'5221.3
2015-Apr-24 15:07N 31°18' E 124°15'1821.0
2015-Apr-24 14:16N 31°07' E 123°58'1520.6
2015-Apr-24 13:33N 30°58' E 123°45'4920.5
2015-Apr-24 11:09N 30°17' E 123°13'1321.3
2015-Apr-24 10:34N 30°08' E 123°03'2221.5
2015-Apr-24 09:33N 29°53' E 122°46'1918.9
2015-Apr-24 08:33N 29°44' E 122°26'1211.8
2015-Apr-24 07:33N 29°49' E 122°13'1010.1
2015-Apr-24 06:33N 29°47' E 122°02'2 1.4
2015-Apr-24 05:18N 29°46' E 122°00'0 0.0
2015-Apr-24 03:22N 29°46' E 122°00'0 0.0
2015-Apr-23 22:22N 29°46' E 122°00'0 0.0
2015-Apr-23 20:33N 29°46' E 122°00'0 0.0
2015-Apr-23 19:15N 29°46' E 122°00'0 0.0
2015-Apr-23 18:33N 29°46' E 122°00'0 0.0
2015-Apr-23 17:27N 29°46' E 122°00'0 0.0
2015-Apr-23 16:21N 29°46' E 122°00'0 0.0
2015-Apr-23 15:33N 29°46' E 122°00'0 0.0
2015-Apr-23 14:15N 29°46' E 122°00'0 0.0
2015-Apr-23 13:10N 29°46' E 122°00'0 0.0
2015-Apr-23 11:10N 29°46' E 122°00'0 0.4
2015-Apr-23 10:33N 29°46' E 122°01'8 8.5
2015-Apr-23 09:33N 29°50' E 122°09'9 8.7
2015-Apr-23 08:31N 29°45' E 122°19'1515.2
2015-Apr-23 07:33N 29°49' E 122°35'2517.6
2015-Apr-23 06:08N 30°02' E 122°59'1215.2
2015-Apr-23 05:20N 30°15' E 122°59'1417.4
2015-Apr-23 04:30N 30°23' E 122°45'1515.9
2015-Apr-23 03:33N 30°30' E 122°30'1413.6
2015-Apr-23 02:33N 30°33' E 122°14'1110.8
2015-Apr-23 01:33N 30°38' E 122°03'0 0.1
2015-Apr-23 00:28N 30°38' E 122°03'0 0.0
2015-Apr-22 23:31N 30°38' E 122°03'0 0.0
2015-Apr-22 22:31N 30°38' E 122°03'0 0.0
2015-Apr-22 21:28N 30°38' E 122°03'0 0.0
2015-Apr-22 20:31N 30°38' E 122°03'0 0.0
2015-Apr-22 19:25N 30°38' E 122°03'0 0.0
2015-Apr-22 18:31N 30°38' E 122°03'0 0.0
2015-Apr-22 17:31N 30°38' E 122°03'0 0.0
2015-Apr-22 16:31N 30°38' E 122°03'0 0.0
2015-Apr-22 15:31N 30°38' E 122°03'0 0.0
2015-Apr-22 14:25N 30°38' E 122°03'0 0.0
2015-Apr-22 13:31N 30°38' E 122°03'0 0.0
2015-Apr-22 12:22N 30°38' E 122°03'0 0.0
2015-Apr-22 11:04N 30°38' E 122°03'0 0.0
2015-Apr-22 10:31N 30°38' E 122°03'0 0.0
2015-Apr-22 09:19N 30°38' E 122°03'0 0.0
2015-Apr-22 08:04N 30°38' E 122°03'0 0.0
2015-Apr-22 07:31N 30°38' E 122°03'0 0.0
2015-Apr-22 06:31N 30°38' E 122°03'0 0.0
2015-Apr-22 05:31N 30°38' E 122°03'0 0.0
2015-Apr-22 04:31N 30°38' E 122°03'2 1.8
2015-Apr-22 03:33N 30°36' E 122°04'1110.9
2015-Apr-22 02:32N 30°33' E 122°17'4 3.7
2015-Apr-22 01:32N 30°33' E 122°21'6 6.2
2015-Apr-22 00:33N 30°32' E 122°28'1010.1
2015-Apr-21 23:33N 30°32' E 122°40'1010.5
2015-Apr-21 22:33N 30°34' E 122°52'1010.4
2015-Apr-21 21:34N 30°35' E 123°04'1110.3
2015-Apr-21 20:32N 30°38' E 123°15'6 6.1
2015-Apr-21 19:31N 30°42' E 123°21'41 9.7
2015-Apr-21 15:20N 31°23' E 123°20'8 9.8
2015-Apr-21 14:33N 31°31' E 123°21'1010.4
2015-Apr-21 13:33N 31°41' E 123°21'1211.7
2015-Apr-21 12:33N 31°53' E 123°21'1312.8
2015-Apr-21 11:33N 32°06' E 123°21'3112.9
2015-Apr-21 09:07N 32°37' E 123°22'611.5
2015-Apr-21 08:33N 32°44' E 123°22'9 8.9
2015-Apr-21 07:33N 32°52' E 123°20'10 9.6
2015-Apr-21 06:32N 33°02' E 123°21'21 9.7
2015-Apr-21 04:19N 33°23' E 123°19'19810.4
2015-Apr-20 09:22N 35°56' E 120°45'8 9.9
2015-Apr-20 08:33N 35°58' E 120°35'10 9.8
2015-Apr-20 07:33N 36°00' E 120°24'9 8.7
2015-Apr-20 06:34N 36°01' E 120°13'0 0.4
2015-Apr-20 05:31N 36°01' E 120°12'0 0.0
2015-Apr-20 04:28N 36°01' E 120°12'0 0.0
2015-Apr-20 03:28N 36°01' E 120°12'0 0.0
2015-Apr-20 02:22N 36°01' E 120°12'0 0.0
2015-Apr-20 01:28N 36°01' E 120°12'0 0.0
2015-Apr-20 00:28N 36°01' E 120°12'0 0.0
2015-Apr-19 23:28N 36°01' E 120°12'0 0.0
2015-Apr-19 22:28N 36°01' E 120°12'0 0.0
2015-Apr-19 21:28N 36°01' E 120°12'0 0.0
2015-Apr-19 20:28N 36°01' E 120°12'0 0.0
2015-Apr-19 19:28N 36°01' E 120°12'0 0.0
2015-Apr-19 18:28N 36°01' E 120°12'0 0.0
2015-Apr-19 17:28N 36°01' E 120°12'0 0.0
2015-Apr-19 16:28N 36°01' E 120°12'0 0.0
2015-Apr-19 15:28N 36°01' E 120°12'0 0.0
2015-Apr-19 14:28N 36°01' E 120°12'0 0.0
2015-Apr-19 13:28N 36°01' E 120°12'0 0.0
2015-Apr-19 12:22N 36°01' E 120°12'0 0.0
2015-Apr-19 11:28N 36°01' E 120°12'0 0.0
2015-Apr-19 10:28N 36°01' E 120°12'0 0.0
2015-Apr-19 09:28N 36°01' E 120°12'0 0.0
2015-Apr-19 08:22N 36°01' E 120°12'0 0.1
2015-Apr-19 07:28N 36°01' E 120°12'0 0.0
2015-Apr-19 04:28N 36°01' E 120°12'0 0.0
2015-Apr-19 03:22N 36°01' E 120°12'0 0.0
2015-Apr-19 02:28N 36°01' E 120°12'0 0.0
2015-Apr-19 01:28N 36°01' E 120°12'0 0.0
2015-Apr-19 00:28N 36°01' E 120°12'0 0.0
2015-Apr-18 23:28N 36°01' E 120°12'0 0.0
2015-Apr-18 21:28N 36°01' E 120°12'0 0.0
2015-Apr-18 20:28N 36°01' E 120°12'2 2.6
2015-Apr-18 19:33N 36°02' E 120°15'1111.3
2015-Apr-18 18:33N 36°00' E 120°28'1514.9
2015-Apr-18 17:33N 35°57' E 120°46'  
Track history (hours):
 
Tides and Currents Weather Stations Pressure Air Temp Water Temp Dewpoint Dewpoint Depression Visibility Wind Speed Wind Dir Waves Ship Positions

Clifford Maersk

Last reported at 2015-Apr-26 05:33 UTC. Time now 2015-May-28 14:14 UTC.
Position N 35°02' E 129°16'.
Warning: this ship's position is 32 days out of date.

Type: Ship (hazmat cat A). MMSI: 219840000.

Date/timePositionNaut miles runAvg speedWind from/ knotsBaromVisibWave heightAir tempDewpointWater temp
2015-Apr-26 05:33N 35°02' E 129°16'206 6.4
2015-Apr-24 21:11N 32°39' E 126°18'2522.2
2015-Apr-24 20:03N 32°24' E 125°54'1122.3
2015-Apr-24 19:33N 32°18' E 125°43'2322.2
2015-Apr-24 18:32N 32°04' E 125°23'2121.8
2015-Apr-24 17:33N 31°50' E 125°03'5221.3
2015-Apr-24 15:07N 31°18' E 124°15'1821.0
2015-Apr-24 14:16N 31°07' E 123°58'1520.6
2015-Apr-24 13:33N 30°58' E 123°45'4920.5
2015-Apr-24 11:09N 30°17' E 123°13'1321.3
2015-Apr-24 10:34N 30°08' E 123°03'2221.5
2015-Apr-24 09:33N 29°53' E 122°46'1918.9
2015-Apr-24 08:33N 29°44' E 122°26'1211.8
2015-Apr-24 07:33N 29°49' E 122°13'1010.1
2015-Apr-24 06:33N 29°47' E 122°02'2 1.4
2015-Apr-24 05:18N 29°46' E 122°00'0 0.0
2015-Apr-24 03:22N 29°46' E 122°00'0 0.0
2015-Apr-23 22:22N 29°46' E 122°00'0 0.0
2015-Apr-23 20:33N 29°46' E 122°00'0 0.0
2015-Apr-23 19:15N 29°46' E 122°00'0 0.0
2015-Apr-23 18:33N 29°46' E 122°00'0 0.0
2015-Apr-23 17:27N 29°46' E 122°00'0 0.0
2015-Apr-23 16:21N 29°46' E 122°00'0 0.0
2015-Apr-23 15:33N 29°46' E 122°00'0 0.0
2015-Apr-23 14:15N 29°46' E 122°00'0 0.0
2015-Apr-23 13:10N 29°46' E 122°00'0 0.0
2015-Apr-23 11:10N 29°46' E 122°00'0 0.4
2015-Apr-23 10:33N 29°46' E 122°01'8 8.5
2015-Apr-23 09:33N 29°50' E 122°09'9 8.7
2015-Apr-23 08:31N 29°45' E 122°19'1515.2
2015-Apr-23 07:33N 29°49' E 122°35'2517.6
2015-Apr-23 06:08N 30°02' E 122°59'1215.2
2015-Apr-23 05:20N 30°15' E 122°59'1417.4
2015-Apr-23 04:30N 30°23' E 122°45'1515.9
2015-Apr-23 03:33N 30°30' E 122°30'1413.6
2015-Apr-23 02:33N 30°33' E 122°14'1110.8
2015-Apr-23 01:33N 30°38' E 122°03'0 0.1
2015-Apr-23 00:28N 30°38' E 122°03'0 0.0
2015-Apr-22 23:31N 30°38' E 122°03'0 0.0
2015-Apr-22 22:31N 30°38' E 122°03'0 0.0
2015-Apr-22 21:28N 30°38' E 122°03'0 0.0
2015-Apr-22 20:31N 30°38' E 122°03'0 0.0
2015-Apr-22 19:25N 30°38' E 122°03'0 0.0
2015-Apr-22 18:31N 30°38' E 122°03'0 0.0
2015-Apr-22 17:31N 30°38' E 122°03'0 0.0
2015-Apr-22 16:31N 30°38' E 122°03'0 0.0
2015-Apr-22 15:31N 30°38' E 122°03'0 0.0
2015-Apr-22 14:25N 30°38' E 122°03'0 0.0
2015-Apr-22 13:31N 30°38' E 122°03'0 0.0
2015-Apr-22 12:22N 30°38' E 122°03'0 0.0
2015-Apr-22 11:04N 30°38' E 122°03'0 0.0
2015-Apr-22 10:31N 30°38' E 122°03'0 0.0
2015-Apr-22 09:19N 30°38' E 122°03'0 0.0
2015-Apr-22 08:04N 30°38' E 122°03'0 0.0
2015-Apr-22 07:31N 30°38' E 122°03'0 0.0
2015-Apr-22 06:31N 30°38' E 122°03'0 0.0
2015-Apr-22 05:31N 30°38' E 122°03'0 0.0
2015-Apr-22 04:31N 30°38' E 122°03'2 1.8
2015-Apr-22 03:33N 30°36' E 122°04'1110.9
2015-Apr-22 02:32N 30°33' E 122°17'4 3.7
2015-Apr-22 01:32N 30°33' E 122°21'6 6.2
2015-Apr-22 00:33N 30°32' E 122°28'1010.1
2015-Apr-21 23:33N 30°32' E 122°40'1010.5
2015-Apr-21 22:33N 30°34' E 122°52'1010.4
2015-Apr-21 21:34N 30°35' E 123°04'1110.3
2015-Apr-21 20:32N 30°38' E 123°15'6 6.1
2015-Apr-21 19:31N 30°42' E 123°21'41 9.7
2015-Apr-21 15:20N 31°23' E 123°20'8 9.8
2015-Apr-21 14:33N 31°31' E 123°21'1010.4
2015-Apr-21 13:33N 31°41' E 123°21'1211.7
2015-Apr-21 12:33N 31°53' E 123°21'1312.8
2015-Apr-21 11:33N 32°06' E 123°21'3112.9
2015-Apr-21 09:07N 32°37' E 123°22'611.5
2015-Apr-21 08:33N 32°44' E 123°22'9 8.9
2015-Apr-21 07:33N 32°52' E 123°20'10 9.6
2015-Apr-21 06:32N 33°02' E 123°21'21 9.7
2015-Apr-21 04:19N 33°23' E 123°19'19810.4
2015-Apr-20 09:22N 35°56' E 120°45'8 9.9
2015-Apr-20 08:33N 35°58' E 120°35'10 9.8
2015-Apr-20 07:33N 36°00' E 120°24'9 8.7
2015-Apr-20 06:34N 36°01' E 120°13'0 0.4
2015-Apr-20 05:31N 36°01' E 120°12'0 0.0
2015-Apr-20 04:28N 36°01' E 120°12'0 0.0
2015-Apr-20 03:28N 36°01' E 120°12'0 0.0
2015-Apr-20 02:22N 36°01' E 120°12'0 0.0
2015-Apr-20 01:28N 36°01' E 120°12'0 0.0
2015-Apr-20 00:28N 36°01' E 120°12'0 0.0
2015-Apr-19 23:28N 36°01' E 120°12'0 0.0
2015-Apr-19 22:28N 36°01' E 120°12'0 0.0
2015-Apr-19 21:28N 36°01' E 120°12'0 0.0
2015-Apr-19 20:28N 36°01' E 120°12'0 0.0
2015-Apr-19 19:28N 36°01' E 120°12'0 0.0
2015-Apr-19 18:28N 36°01' E 120°12'0 0.0
2015-Apr-19 17:28N 36°01' E 120°12'0 0.0
2015-Apr-19 16:28N 36°01' E 120°12'0 0.0
2015-Apr-19 15:28N 36°01' E 120°12'0 0.0
2015-Apr-19 14:28N 36°01' E 120°12'0 0.0
2015-Apr-19 13:28N 36°01' E 120°12'0 0.0
2015-Apr-19 12:22N 36°01' E 120°12'0 0.0
2015-Apr-19 11:28N 36°01' E 120°12'0 0.0
2015-Apr-19 10:28N 36°01' E 120°12'0 0.0
2015-Apr-19 09:28N 36°01' E 120°12'0 0.0
2015-Apr-19 08:22N 36°01' E 120°12'0 0.1
2015-Apr-19 07:28N 36°01' E 120°12'0 0.0
2015-Apr-19 04:28N 36°01' E 120°12'0 0.0
2015-Apr-19 03:22N 36°01' E 120°12'0 0.0
2015-Apr-19 02:28N 36°01' E 120°12'0 0.0
2015-Apr-19 01:28N 36°01' E 120°12'0 0.0
2015-Apr-19 00:28N 36°01' E 120°12'0 0.0
2015-Apr-18 23:28N 36°01' E 120°12'0 0.0
2015-Apr-18 21:28N 36°01' E 120°12'0 0.0
2015-Apr-18 20:28N 36°01' E 120°12'2 2.6
2015-Apr-18 19:33N 36°02' E 120°15'1111.3
2015-Apr-18 18:33N 36°00' E 120°28'1514.9
2015-Apr-18 17:33N 35°57' E 120°46'  

Dump ship's entire track history